Aérodrome :
LOGIN :

S'inscrire | Disclaimer

   EN    FR    IT 

 










Légende :    VFR   VFR Marginal   IFR   IFR Intensif   IFR Très Intensif
Visi : 
Plafond : 
>= 8 km
>= 3000ft
5 à 8 km
1000 à 3000 ft
1500m à 5 km
500 à 1000 ft
800 à 1500m
200 à 500 ft
< 800m
< 200 ft
Symboles :   Orages  Brouillard  Fortes neiges  Fortes précipitations  Vent > 20 kt
SIGMETs :   Divers  Orages  Givrage  Turbulence  Onde Orograph.  Cendres Volcan.







- Altitude de l'aérodrome : 148 ft
- Code IATA : ALL


LIMG - Villanova D'Albenga International

DERNIER METAR :
  • 281050Z 18007KT 140V280 9999 FEW070 15/05 Q1008

METARs EXPIRÉS :
  • 280950Z 16007KT 100V230 CAVOK 15/05 Q1007
  • 280850Z 11009KT 9999 FEW070 13/04 Q1006

Prévision TAF périmée.
Pas de NOTAMs connus pour ce terrain.
5 SIGMETs publiés pour la FIR Milano (LIMM) :
 
LIMM SIGMET 26 VALID 281230/281530 LIMM- LIMM MILANO FIR SEV TURB FCST WI N4555 E00703 - N4711 E01201 - N4632 E01344 - N4540 E01342 - N4518 E01251 - N4330 E01430 - N4343 E01204 - N4449 E00858 - N4551 E01140 - N4620 E01111 - N4531 E00703 - N4555 E00703 FL260/370 STNR NC=
LIMM SIGMET 25 VALID 281106/281210 LIMM- LIMM MILANO FIR CNL SIGMET 24 280910/281210=
Orages noyés dans la masse
LIMM SIGMET 24 VALID 280910/281210 LIMM- LIMM MILANO FIR EMBD TS OBS WI N4627 E01111 - N4649 E01219 - N4632 E01344 - N4605 E01338 - N4602 E01056 - N4627 E01111 TOP FL230 STNR NC=
LIMM SIGMET 23 VALID 280930/281230 LIMM- LIMM MILANO FIR SEV TURB OBS/FCST WI N4555 E00703 - N4711 E01201 - N4632 E01344 - N4540 E01342 - N4518 E01251 - N4330 E01430 - N4343 E01204 - N4449 E00858 - N4551 E01140 - N4620 E01111 - N4531 E00703 - N4555 E00703 FL250/380 MOV E NC=
Onde orographique forte
LIMM SIGMET 22 VALID 280900/281200 LIMM- LIMM MILANO FIR SEV MTW FCST WI N4431 E01110 - N4419 E01027 - N4339 E01152 - N4331 E01341 - N4410 E01233 - N4440 E01154 - N4431 E01110 FL060/150 STNR NC=



MET'MAP, la Météo Aéronautique d'un coup d'oeil ! - Copyright ORBIFLY Décembre 2007 - Disclaimer

ORBIFLY MET'MAP TEAM :

Programmation & Développement : Alexandra Zaïnal
Conception & Développement : Baudouin d'Aumeries
Co-Programmation & Développement : Marc-Olivier Méhu
Soutien technique & logistique : Manuel Goepfert

Contact : metmap@orbifly.com




SOURCES & CREDITS :

   NOAA